Flight Track Log - Related Links

Times and Time Zones

All times are in EDT time to prevent confusion due to time zone crossing. See the KAL1338 flight status page for this flight to view local times or setup timezone preferences in your user account.

Time Position Orientation Groundspeed Altitude Reporting Facility
EDT Latitude Longitude Course Direction KTS MPH feet Rate Location/Type
Sat 05:08:00 AM 35.0609 127.5504 346° North  Level Estimated
Sat 05:09:00 AM 35.1346 127.5287 346° North  Level Estimated
Sat 05:10:00 AM 35.2083 127.5069 346° North  Level Estimated
Sat 05:11:00 AM 35.2820 127.4851 346° North  Level Estimated
Sat 05:12:00 AM 35.3557 127.4633 346° North  Level Estimated
Sat 05:13:00 AM 35.4293 127.4414 346° North  Level Estimated
Sat 05:14:00 AM 35.5173 127.4152 346° North  Level Estimated
Sat 05:15:00 AM 35.6052 127.3890 346° North  Level Estimated
Sat 05:16:00 AM 35.6931 127.3627 346° North  Level Estimated
Sat 05:17:00 AM 35.7810 127.3364 346° North  Level Estimated
Sat 05:18:00 AM 35.8689 127.3100 346° North  Level Estimated
Sat 05:19:00 AM 35.9568 127.2835 346° North  Level Estimated
Sat 05:20:00 AM 36.0447 127.2570 346° North  Level Estimated
Sat 05:21:00 AM 36.1326 127.2305 346° North  Level Estimated
Sat 05:22:00 AM 36.2205 127.2038 346° North  Level Estimated
Sat 05:23:00 AM 36.3084 127.1771 346° North  Level Estimated
Sat 05:24:00 AM 36.3963 127.1504 346° North  Level Estimated
Sat 05:24:05 AM 36.4370 127.0020 346° North 370 426 22,700  Level FlightAware ADS-B
Sat 05:24:40 AM 36.4980 127.0000 358° North 357 411 21,400 -2,282 Descending FlightAware ADS-B
Sat 05:25:16 AM 36.5580 126.9980 358° North 358 412 20,000 -2,314 Descending FlightAware ADS-B
Sat 05:25:50 AM 36.6140 126.9960 358° North 353 406 18,700 -1,913 Descending FlightAware ADS-B
Sat 05:26:25 AM 36.6710 127.0020 North 357 411 17,800 -1,440 Descending FlightAware ADS-B
Sat 05:26:40 AM 36.6920 127.0150 26° Northeast 374 430 17,500 -1,080 Descending FlightAware ADS-B
Sat 05:27:15 AM 36.7430 127.0640 38° Northeast 372 428 16,900 -929 Descending FlightAware ADS-B
Sat 05:28:04 AM 36.8080 127.1280 38° Northeast 373 429 16,200 -483 Descending FlightAware ADS-B
Sat 05:28:42 AM 36.8520 127.1700 37° Northeast 373 429 16,200 -1,029 Level FlightAware ADS-B
Sat 05:29:14 AM 36.9000 127.2180 39° Northeast 356 410 15,000 -2,137 Descending FlightAware ADS-B
Sat 05:29:55 AM 36.9580 127.2530 26° Northeast 349 402 13,600 -1,050 Descending FlightAware ADS-B
Sat 05:30:34 AM 37.0000 127.2940 38° Northeast 349 402 13,600 -2,591 Level FlightAware ADS-B
Sat 05:30:39 AM 37.0150 127.2350 288° West 291 335 11,700 -4,304 Descending FlightAware ADS-B
Sat 05:31:20 AM 37.0680 127.2150 343° North 265 305 10,300 -1,846 Descending FlightAware ADS-B
Sat 05:31:44 AM 37.0960 127.2040 343° North 239 275 9,700 -1,680 Descending FlightAware ADS-B
Sat 05:32:10 AM 37.1240 127.1930 343° North 240 276 8,900 -1,696 Descending FlightAware ADS-B
Sat 05:32:30 AM 37.1450 127.1850 343° North 224 258 8,400 -1,091 Descending FlightAware ADS-B
Sat 05:32:54 AM 37.1690 127.1760 343° North 222 255 8,100 -900 Descending FlightAware ADS-B
Sat 05:33:10 AM 37.1850 127.1700 343° North 223 257 7,800 -667 Descending FlightAware ADS-B
Sat 05:33:30 AM 37.2030 127.1630 343° North 201 231 7,700 -122 Descending FlightAware ADS-B
Sat 05:33:59 AM 37.2290 127.1530 343° North 187 215 7,700 -240 Level FlightAware ADS-B
Sat 05:34:20 AM 37.2460 127.1470 344° North 187 215 7,500 -783 Descending FlightAware ADS-B
Sat 05:34:45 AM 37.2670 127.1390 343° North 183 211 7,100 -800 Descending FlightAware ADS-B
Sat 05:35:05 AM 37.2830 127.1310 338° Northwest 173 199 6,900 -828 Descending FlightAware ADS-B
Sat 05:35:14 AM 37.2880 127.1260 321° Northwest 167 192 6,700 -960 Descending FlightAware ADS-B
Sat 05:35:30 AM 37.2970 127.1140 313° West 165 190 6,500 -857 Descending FlightAware ADS-B
Sat 05:35:49 AM 37.3060 127.1030 316° Northwest 167 192 6,200 -857 Descending FlightAware ADS-B
Sat 05:36:26 AM 37.3250 127.0800 316° Northwest 166 191 5,700 -831 Descending FlightAware ADS-B
Sat 05:36:54 AM 37.3430 127.0580 316° Northwest 178 205 5,300 -652 Descending FlightAware ADS-B
Sat 05:37:12 AM 37.3530 127.0450 314° West 168 193 5,200 -429 Descending FlightAware ADS-B
Sat 05:37:36 AM 37.3650 127.0300 315° West 156 180 5,000 -750 Descending FlightAware ADS-B
Sat 05:38:00 AM 37.3770 127.0150 315° West 158 182 4,600 -837 Descending FlightAware ADS-B
Sat 05:38:19 AM 37.3860 127.0040 316° Northwest 160 184 4,400 -900 Descending FlightAware ADS-B
Sat 05:38:40 AM 37.3990 126.9880 316° Northwest 161 185 4,000 -1,067 Descending FlightAware ADS-B
Sat 05:39:04 AM 37.4120 126.9720 316° Northwest 161 185 3,600 -873 Descending FlightAware ADS-B
Sat 05:39:35 AM 37.4290 126.9500 314° West 158 182 3,200 -871 Descending FlightAware ADS-B
Sat 05:40:06 AM 37.4450 126.9300 315° West 157 181 2,700 -941 Descending FlightAware ADS-B
Sat 05:40:26 AM 37.4560 126.9170 317° Northwest 162 186 2,400 -857 Descending FlightAware ADS-B
Sat 05:40:41 AM 37.4640 126.9070 315° West 157 181 2,200 -857 Descending FlightAware ADS-B
Sat 05:41:01 AM 37.4730 126.8940 311° West 142 163 1,900 -750 Descending FlightAware ADS-B
Sat 05:41:21 AM 37.4820 126.8830 316° Northwest 134 154 1,700 -600 Descending FlightAware ADS-B
Sat 05:41:41 AM 37.4900 126.8740 318° Northwest 135 155 1,500 -800 Descending FlightAware ADS-B
Sat 05:42:06 AM 37.5030 126.8580 316° Northwest 139 160 1,100 -857 Descending FlightAware ADS-B
Sat 05:42:16 AM 37.5060 126.8530 307° West 138 159 1,000 -600 Descending FlightAware ADS-B
Sat 05:45:00 AM 37.5583 126.7906 317° Northwest  Level Estimated

Login

Don't have an account? Register now (free) for customized features, flight alerts, and more!